createdAt,value
2019-01-18T00:02:37.653Z,2.60
2019-01-18T00:05:18.803Z,2.80
2019-01-18T00:07:59.654Z,2.55
2019-01-18T00:10:40.454Z,2.52
2019-01-18T00:13:21.071Z,2.98
2019-01-18T00:16:01.663Z,2.87
2019-01-18T00:18:42.126Z,2.98
2019-01-18T00:21:22.629Z,3.08
2019-01-18T00:24:03.195Z,3.52
2019-01-18T00:26:43.690Z,3.60
2019-01-18T00:29:29.565Z,3.40
2019-01-18T00:32:06.830Z,3.50
2019-01-18T00:34:47.552Z,3.17
2019-01-18T00:37:28.176Z,3.30
2019-01-18T00:40:08.744Z,3.30
2019-01-18T00:42:49.603Z,3.35
2019-01-18T00:45:30.695Z,2.90
2019-01-18T00:48:11.055Z,3.15
2019-01-18T00:50:51.816Z,3.33
2019-01-18T00:53:32.290Z,3.35
2019-01-18T00:56:12.872Z,2.50
2019-01-18T00:58:53.766Z,3.00
2019-01-18T01:01:34.158Z,2.83
2019-01-18T01:04:14.865Z,2.80
2019-01-18T01:06:56.056Z,2.55
2019-01-18T01:09:37.079Z,3.20
2019-01-18T01:12:17.787Z,2.95
2019-01-18T01:14:58.367Z,2.90
2019-01-18T01:17:39.136Z,2.95
2019-01-18T01:20:19.403Z,2.42
2019-01-18T01:23:00.016Z,2.52
2019-01-18T01:25:40.771Z,3.00
2019-01-18T01:28:21.151Z,2.65
2019-01-18T01:31:01.471Z,2.50
2019-01-18T01:33:42.639Z,2.50
2019-01-18T01:36:23.132Z,3.30
2019-01-18T01:39:05.402Z,2.55
2019-01-18T01:41:46.293Z,2.65
2019-01-18T01:44:26.528Z,2.90
2019-01-18T01:47:06.802Z,2.92
2019-01-18T01:49:47.354Z,2.62
2019-01-18T01:52:27.871Z,2.80
2019-01-18T01:55:09.251Z,2.90
2019-01-18T01:57:50.144Z,3.30
2019-01-18T02:00:30.827Z,3.30
2019-01-18T02:03:11.170Z,3.25
2019-01-18T02:05:52.844Z,2.95
2019-01-18T02:11:17.003Z,3.05
2019-01-18T02:13:57.393Z,3.22
2019-01-18T02:16:38.181Z,3.00
2019-01-18T02:19:19.173Z,3.33
2019-01-18T02:21:59.810Z,3.50
2019-01-18T02:24:43.167Z,3.58
2019-01-18T02:27:24.140Z,3.30
2019-01-18T02:30:04.824Z,3.40
2019-01-18T02:32:45.838Z,3.02
2019-01-18T02:35:26.219Z,3.45
2019-01-18T02:38:06.925Z,3.15
2019-01-18T02:40:47.615Z,3.30
2019-01-18T02:43:28.334Z,3.67
2019-01-18T02:46:08.648Z,4.45
2019-01-18T02:48:49.195Z,3.40
2019-01-18T02:51:29.899Z,3.90
2019-01-18T02:54:10.475Z,3.85
2019-01-18T02:56:51.259Z,3.80
2019-01-18T02:59:31.596Z,3.47
2019-01-18T03:02:12.147Z,3.70
2019-01-18T03:04:52.840Z,3.30
2019-01-18T03:07:33.407Z,3.62
2019-01-18T03:10:13.980Z,3.30
2019-01-18T03:12:54.693Z,3.35
2019-01-18T03:15:35.485Z,3.10
2019-01-18T03:18:16.288Z,2.80
2019-01-18T03:20:56.612Z,3.40
2019-01-18T03:23:37.089Z,3.20
2019-01-18T03:26:17.792Z,3.17
2019-01-18T03:31:41.413Z,3.50
2019-01-18T03:34:21.922Z,3.40
2019-01-18T03:37:02.578Z,3.45
2019-01-18T03:42:25.976Z,3.45
2019-01-18T03:45:06.307Z,3.77
2019-01-18T03:47:46.902Z,3.12
2019-01-18T03:50:28.028Z,3.30
2019-01-18T03:53:08.795Z,3.60
2019-01-18T03:55:49.398Z,3.77
2019-01-18T03:58:29.728Z,3.02
2019-01-18T04:01:10.476Z,3.25
2019-01-18T04:03:50.961Z,3.40
2019-01-18T04:06:31.697Z,3.45
2019-01-18T04:09:12.976Z,3.45
2019-01-18T04:11:54.095Z,3.15
2019-01-18T04:14:34.596Z,3.22
2019-01-18T04:17:15.857Z,3.60
2019-01-18T04:19:56.933Z,3.30
2019-01-18T04:22:37.599Z,3.42
2019-01-18T04:25:20.597Z,3.45
2019-01-18T04:28:01.700Z,3.35
2019-01-18T04:30:42.379Z,3.65
2019-01-18T04:33:22.915Z,3.35
2019-01-18T04:36:01.976Z,3.22
2019-01-18T04:38:49.865Z,4.08
2019-01-18T04:41:37.755Z,4.40
2019-01-18T04:47:32.707Z,4.10
2019-01-18T04:53:49.122Z,3.90
2019-01-18T04:56:37.040Z,4.00
2019-01-18T04:59:24.919Z,4.17
2019-01-18T05:02:12.812Z,4.20
2019-01-18T05:05:00.714Z,4.00
2019-01-18T05:07:48.675Z,4.25
2019-01-18T05:10:36.593Z,3.92
2019-01-18T05:13:24.505Z,3.90
2019-01-18T05:19:21.064Z,3.80
2019-01-18T05:22:08.942Z,5.05
2019-01-18T05:24:56.831Z,4.33
2019-01-18T05:27:44.756Z,5.90
2019-01-18T05:30:32.646Z,5.40
2019-01-18T05:33:20.541Z,5.03
2019-01-18T05:36:08.427Z,5.50
2019-01-18T05:38:48.788Z,5.50
2019-01-18T05:41:29.544Z,5.60
2019-01-18T05:44:10.519Z,6.40
2019-01-18T05:46:51.096Z,6.00
2019-01-18T05:49:31.888Z,5.22
2019-01-18T05:52:12.908Z,5.72
2019-01-18T05:57:35.803Z,6.90
2019-01-18T06:00:18.495Z,7.87
2019-01-18T06:02:59.447Z,6.80
2019-01-18T06:05:40.955Z,7.80
2019-01-18T06:08:21.290Z,8.90
2019-01-18T06:11:02.219Z,7.50
2019-01-18T06:13:42.988Z,7.25
2019-01-18T06:16:23.628Z,5.90
2019-01-18T06:19:04.411Z,5.83
2019-01-18T06:21:45.283Z,7.25
2019-01-18T06:24:25.938Z,8.63
2019-01-18T06:27:06.907Z,9.18
2019-01-18T06:29:47.800Z,8.53
2019-01-18T06:32:28.788Z,7.37
2019-01-18T06:35:09.219Z,6.85
2019-01-18T06:37:49.943Z,7.20
2019-01-18T06:40:30.867Z,5.60
2019-01-18T06:43:11.656Z,6.12
2019-01-18T06:45:52.448Z,6.87
2019-01-18T06:48:33.620Z,6.42
2019-01-18T06:51:13.983Z,6.20
2019-01-18T06:53:54.599Z,5.87
2019-01-18T06:56:35.324Z,5.40
2019-01-18T06:59:16.067Z,6.05
2019-01-18T07:01:56.951Z,5.62
2019-01-18T07:04:41.442Z,5.10
2019-01-18T07:07:20.512Z,5.70
2019-01-18T07:10:01.218Z,5.87
2019-01-18T07:12:41.696Z,4.90
2019-01-18T07:15:22.371Z,6.12
2019-01-18T07:18:03.000Z,6.40
2019-01-18T07:20:43.880Z,5.42
2019-01-18T07:23:24.553Z,5.42
2019-01-18T07:26:05.049Z,5.10
2019-01-18T07:28:45.716Z,5.47
2019-01-18T07:31:26.487Z,5.87
2019-01-18T07:34:07.316Z,5.67
2019-01-18T07:36:47.872Z,5.83
2019-01-18T07:39:28.535Z,5.50
2019-01-18T07:42:09.352Z,6.10
2019-01-18T07:44:50.013Z,5.50
2019-01-18T07:47:30.664Z,6.03
2019-01-18T07:50:11.384Z,5.90
2019-01-18T07:52:52.320Z,5.37
2019-01-18T07:55:33.108Z,4.53
2019-01-18T07:58:13.936Z,5.12
2019-01-18T08:00:54.657Z,6.08
2019-01-18T08:03:35.398Z,5.58
2019-01-18T08:06:15.948Z,6.17
2019-01-18T08:08:56.835Z,6.33
2019-01-18T08:11:37.379Z,5.50
2019-01-18T08:14:18.332Z,4.72
2019-01-18T08:19:41.516Z,5.58
2019-01-18T08:22:22.231Z,5.67
2019-01-18T08:25:02.921Z,5.40
2019-01-18T08:27:43.888Z,5.83
2019-01-18T08:30:24.768Z,6.20
2019-01-18T08:33:05.847Z,5.85
2019-01-18T08:35:46.301Z,6.40
2019-01-18T08:38:27.196Z,4.97
2019-01-18T08:41:07.949Z,4.90
2019-01-18T08:43:48.456Z,4.20
2019-01-18T08:46:29.264Z,5.15
2019-01-18T08:49:09.905Z,4.60
2019-01-18T08:51:50.712Z,4.40
2019-01-18T08:54:31.437Z,3.98
2019-01-18T08:57:12.140Z,3.45
2019-01-18T08:59:52.756Z,3.52
2019-01-18T09:02:33.456Z,4.15
2019-01-18T09:05:14.156Z,3.33
2019-01-18T09:10:37.535Z,2.40
2019-01-18T09:13:18.479Z,2.45
2019-01-18T09:15:59.737Z,2.30
2019-01-18T09:18:40.384Z,1.95
2019-01-18T09:21:21.357Z,2.12
2019-01-18T09:24:02.024Z,2.65
2019-01-18T09:26:42.734Z,2.85
2019-01-18T09:29:23.712Z,3.55
2019-01-18T09:32:04.406Z,3.72
2019-01-18T09:34:45.165Z,2.95
2019-01-18T09:37:25.832Z,2.37
2019-01-18T09:40:06.632Z,2.42
2019-01-18T09:42:47.328Z,2.70
2019-01-18T09:45:28.148Z,2.45
2019-01-18T09:48:08.876Z,2.15
2019-01-18T09:50:49.444Z,3.08
2019-01-18T09:53:30.337Z,2.33
2019-01-18T09:56:11.027Z,2.75
2019-01-18T09:58:51.659Z,2.30
2019-01-18T10:01:32.322Z,2.85
2019-01-18T10:04:13.326Z,2.30
2019-01-18T10:06:54.158Z,3.40
2019-01-18T10:09:34.939Z,2.85
2019-01-18T10:12:15.363Z,2.87
2019-01-18T10:14:56.013Z,2.75
2019-01-18T10:17:36.733Z,3.10
2019-01-18T10:20:17.527Z,2.77
2019-01-18T10:22:58.364Z,3.02
2019-01-18T10:25:39.093Z,2.95
2019-01-18T10:28:20.055Z,2.80
2019-01-18T10:31:00.852Z,3.10
2019-01-18T10:33:41.473Z,3.30
2019-01-18T10:36:22.135Z,3.47
2019-01-18T10:39:04.500Z,3.87
2019-01-18T10:41:44.932Z,3.80
2019-01-18T10:44:25.772Z,3.65
2019-01-18T10:47:06.246Z,3.87
2019-01-18T10:49:47.293Z,3.70
2019-01-18T10:52:27.916Z,4.17
2019-01-18T10:55:08.631Z,4.05
2019-01-18T10:57:49.450Z,4.10
2019-01-18T11:00:30.056Z,5.60
2019-01-18T11:03:11.084Z,4.17
2019-01-18T11:05:52.039Z,4.80
2019-01-18T11:08:33.215Z,4.53
2019-01-18T11:11:13.519Z,4.60
2019-01-18T11:13:54.107Z,4.33
2019-01-18T11:16:35.176Z,4.63
2019-01-18T11:19:15.748Z,3.97
2019-01-18T11:21:56.189Z,3.87
2019-01-18T11:24:36.568Z,4.30
2019-01-18T11:27:17.185Z,3.87
2019-01-18T11:29:57.651Z,4.20
2019-01-18T11:32:37.964Z,4.13
2019-01-18T11:35:18.578Z,4.37
2019-01-18T11:37:59.448Z,3.60
2019-01-18T11:40:39.853Z,4.30
2019-01-18T11:43:20.320Z,3.90
2019-01-18T11:46:00.736Z,3.97
2019-01-18T11:48:41.224Z,4.33
2019-01-18T11:51:22.185Z,3.70
2019-01-18T11:54:02.507Z,4.00
2019-01-18T11:56:43.612Z,4.20
2019-01-18T11:59:24.085Z,3.90
2019-01-18T12:02:04.611Z,4.03
2019-01-18T12:04:44.947Z,3.53
2019-01-18T12:10:09.420Z,2.90
2019-01-18T12:12:50.094Z,3.63
2019-01-18T12:15:30.492Z,3.60
2019-01-18T12:18:11.100Z,3.23
2019-01-18T12:20:51.451Z,3.10
2019-01-18T12:23:32.027Z,3.40
2019-01-18T12:26:12.661Z,3.70
2019-01-18T12:28:53.490Z,3.90
2019-01-18T12:31:34.112Z,2.93
2019-01-18T12:36:58.929Z,3.20
2019-01-18T12:39:40.020Z,3.43
2019-01-18T12:42:20.704Z,3.40
2019-01-18T12:45:01.410Z,3.20
2019-01-18T12:47:41.948Z,3.33
2019-01-18T12:50:22.643Z,3.40
2019-01-18T12:53:03.197Z,3.47
2019-01-18T12:55:43.667Z,3.43
2019-01-18T12:58:24.335Z,3.37
2019-01-18T13:01:04.886Z,3.53
2019-01-18T13:03:45.511Z,3.53
2019-01-18T13:06:26.106Z,3.97
2019-01-18T13:09:06.835Z,3.73
2019-01-18T13:11:47.516Z,4.03
2019-01-18T13:14:28.040Z,3.60
2019-01-18T13:17:08.791Z,3.60
2019-01-18T13:19:49.320Z,3.50
2019-01-18T13:22:30.168Z,3.63
2019-01-18T13:25:10.883Z,3.80
2019-01-18T13:27:51.692Z,3.60
2019-01-18T13:30:32.848Z,2.97
2019-01-18T13:33:13.636Z,3.47
2019-01-18T13:35:54.424Z,3.53
2019-01-18T13:38:34.983Z,3.03
2019-01-18T13:41:15.712Z,3.40
2019-01-18T13:43:56.195Z,3.23
2019-01-18T13:46:36.764Z,3.37
2019-01-18T13:49:18.128Z,3.40
2019-01-18T13:51:59.364Z,3.63
2019-01-18T13:54:40.113Z,4.30
2019-01-18T13:57:20.665Z,3.73
2019-01-18T14:00:01.268Z,3.50
2019-01-18T14:02:48.227Z,4.07
2019-01-18T14:05:24.486Z,3.67
2019-01-18T14:08:05.205Z,3.97
2019-01-18T14:10:45.606Z,3.83
2019-01-18T14:13:26.159Z,3.37
2019-01-18T14:16:06.693Z,4.03
2019-01-18T14:18:47.040Z,3.80
2019-01-18T14:21:27.522Z,3.87
2019-01-18T14:24:07.930Z,4.10
2019-01-18T14:26:48.873Z,4.13
2019-01-18T14:29:29.462Z,3.90
2019-01-18T14:32:10.189Z,3.70
2019-01-18T14:34:50.856Z,4.07
2019-01-18T14:37:31.563Z,3.67
2019-01-18T14:40:12.108Z,4.00
2019-01-18T14:42:52.757Z,3.67
2019-01-18T14:48:16.482Z,4.10
2019-01-18T14:50:56.984Z,4.03
2019-01-18T14:53:37.704Z,3.90
2019-01-18T14:56:18.331Z,3.50
2019-01-18T14:58:58.971Z,3.90
2019-01-18T15:01:39.621Z,3.90
2019-01-18T15:04:20.091Z,3.80
2019-01-18T15:07:00.874Z,4.30
2019-01-18T15:09:41.633Z,3.53
2019-01-18T15:12:22.217Z,3.90
2019-01-18T15:15:03.001Z,4.03
2019-01-18T15:17:43.505Z,3.60
2019-01-18T15:20:24.195Z,4.67
2019-01-18T15:23:05.099Z,4.03
2019-01-18T15:25:45.784Z,4.10
2019-01-18T15:28:26.370Z,4.03
2019-01-18T15:31:07.055Z,4.00
2019-01-18T15:33:47.723Z,4.33
2019-01-18T15:36:28.155Z,4.27
2019-01-18T15:39:11.094Z,4.60
2019-01-18T15:41:51.331Z,6.40
2019-01-18T15:44:31.823Z,5.67
2019-01-18T15:47:12.356Z,6.13
2019-01-18T15:49:41.190Z,6.40
2019-01-18T15:52:09.869Z,6.10
2019-01-18T15:54:38.531Z,7.20
2019-01-18T15:57:07.200Z,6.27
2019-01-18T15:59:35.935Z,5.97
2019-01-18T16:02:04.799Z,6.73
2019-01-18T16:04:33.485Z,6.07
2019-01-18T16:07:02.107Z,6.70
2019-01-18T16:09:30.823Z,7.00
2019-01-18T16:11:59.407Z,7.10
2019-01-18T16:14:28.038Z,6.90
2019-01-18T16:17:04.926Z,7.10
2019-01-18T16:19:33.583Z,6.13
2019-01-18T16:22:02.271Z,6.30
2019-01-18T16:24:31.027Z,6.47
2019-01-18T16:26:59.732Z,6.43
2019-01-18T16:29:28.527Z,6.07
2019-01-18T16:31:57.148Z,6.67
2019-01-18T16:34:26.112Z,5.97
2019-01-18T16:36:54.734Z,6.47
2019-01-18T16:39:23.651Z,6.83
2019-01-18T16:41:52.294Z,7.20
2019-01-18T16:44:20.916Z,7.10
2019-01-18T16:46:49.607Z,7.13
2019-01-18T16:49:18.288Z,7.37
2019-01-18T16:51:46.899Z,7.70
2019-01-18T16:54:15.557Z,7.90
2019-01-18T16:56:44.142Z,7.63
2019-01-18T16:59:12.852Z,7.23
2019-01-18T17:01:41.452Z,7.43
2019-01-18T17:04:10.084Z,8.33
2019-01-18T17:06:38.683Z,8.20
2019-01-18T17:09:09.022Z,8.43
2019-01-18T17:11:37.770Z,8.40
2019-01-18T17:14:06.443Z,8.53
2019-01-18T17:16:35.167Z,8.60
2019-01-18T17:19:03.821Z,8.70
2019-01-18T17:21:32.402Z,9.10
2019-01-18T17:24:01.052Z,7.90
2019-01-18T17:26:29.672Z,8.33
2019-01-18T17:28:58.329Z,9.47
2019-01-18T17:31:26.919Z,8.07
2019-01-18T17:33:55.575Z,8.48
2019-01-18T17:36:46.025Z,8.90
2019-01-18T17:39:48.614Z,8.83
2019-01-18T17:42:31.777Z,9.40
2019-01-18T17:45:46.460Z,9.07
2019-01-18T17:48:48.982Z,9.37
2019-01-18T17:51:57.591Z,9.30
2019-01-18T17:55:10.572Z,10.15
2019-01-18T17:58:05.227Z,10.10
2019-01-18T18:01:30.041Z,10.32
2019-01-18T18:04:24.577Z,9.83
2019-01-18T18:07:28.708Z,10.70
2019-01-18T18:10:16.990Z,10.50
2019-01-18T18:13:13.998Z,9.10
2019-01-18T18:16:05.295Z,10.63
2019-01-18T18:19:17.130Z,11.47
2019-01-18T18:22:23.490Z,10.77
2019-01-18T18:25:05.251Z,11.00
2019-01-18T18:28:08.428Z,12.50
2019-01-18T18:31:03.180Z,12.23
2019-01-18T18:34:15.659Z,12.40
2019-01-18T18:37:03.065Z,12.10
2019-01-18T18:39:59.509Z,12.00
2019-01-18T18:42:45.486Z,12.30
2019-01-18T18:45:45.833Z,12.53
2019-01-18T18:48:57.443Z,12.83
2019-01-18T18:52:04.425Z,13.37
2019-01-18T18:54:57.105Z,12.80
2019-01-18T18:58:08.351Z,12.63
2019-01-18T19:01:00.195Z,13.98
2019-01-18T19:04:04.689Z,14.30
2019-01-18T19:07:14.882Z,13.15
2019-01-18T19:10:15.397Z,12.73
2019-01-18T19:13:31.677Z,13.85
2019-01-18T19:16:35.515Z,13.90
2019-01-18T19:19:48.712Z,14.73
2019-01-18T19:22:45.675Z,14.90
2019-01-18T19:25:41.721Z,14.50
2019-01-18T19:28:31.408Z,14.35
2019-01-18T19:31:23.351Z,13.95
2019-01-18T19:34:30.042Z,14.87
2019-01-18T19:37:25.212Z,15.60
2019-01-18T19:40:12.908Z,15.68
2019-01-18T19:43:24.100Z,15.50
2019-01-18T19:46:08.859Z,14.80
2019-01-18T19:48:58.890Z,14.75
2019-01-18T19:51:55.107Z,16.00
2019-01-18T19:54:35.415Z,15.40
2019-01-18T19:57:29.248Z,16.48
2019-01-18T20:00:24.239Z,16.48
2019-01-18T20:03:43.246Z,15.45
2019-01-18T20:06:24.972Z,17.37
2019-01-18T20:09:13.166Z,15.63
2019-01-18T20:12:11.415Z,16.77
2019-01-18T20:15:04.991Z,19.07
2019-01-18T20:18:09.280Z,17.55
2019-01-18T20:21:12.166Z,17.60
2019-01-18T20:24:09.496Z,17.20
2019-01-18T20:27:09.884Z,15.58
2019-01-18T20:30:34.923Z,17.10
2019-01-18T20:33:24.794Z,16.80
2019-01-18T20:36:20.099Z,16.02
2019-01-18T20:39:10.724Z,20.20
2019-01-18T20:42:22.700Z,18.30
2019-01-18T20:45:10.366Z,18.27
2019-01-18T20:48:02.228Z,18.52
2019-01-18T20:51:00.535Z,21.05
2019-01-18T20:53:54.797Z,22.00
2019-01-18T20:56:52.658Z,22.17
2019-01-18T21:00:05.241Z,20.57
2019-01-18T21:03:10.368Z,19.25
2019-01-18T21:05:48.443Z,19.10
2019-01-18T21:08:30.171Z,18.57
2019-01-18T21:11:10.800Z,20.72
2019-01-18T21:14:10.231Z,17.32
2019-01-18T21:17:06.535Z,18.60
2019-01-18T21:20:15.623Z,17.73
2019-01-18T21:23:28.689Z,16.48
2019-01-18T21:26:47.615Z,18.62
2019-01-18T21:29:47.881Z,17.87
2019-01-18T21:32:48.214Z,16.00
2019-01-18T21:35:26.299Z,15.18
2019-01-18T21:38:47.075Z,15.43
2019-01-18T21:42:05.210Z,14.78
2019-01-18T21:45:08.848Z,15.03
2019-01-18T21:47:58.168Z,15.70
2019-01-18T21:50:59.976Z,14.87
2019-01-18T21:53:40.658Z,14.28
2019-01-18T21:56:29.322Z,14.90
2019-01-18T21:59:27.543Z,15.97
2019-01-18T22:02:40.353Z,15.28
2019-01-18T22:05:29.823Z,15.32
2019-01-18T22:08:36.873Z,15.72
2019-01-18T22:11:16.034Z,16.07
2019-01-18T22:14:06.990Z,16.62
2019-01-18T22:17:14.395Z,18.85
2019-01-18T22:20:12.631Z,20.02
2019-01-18T22:22:54.873Z,28.50
2019-01-18T22:25:45.368Z,26.30
2019-01-18T22:28:45.219Z,25.43
2019-01-18T22:32:14.499Z,24.25
2019-01-18T22:35:04.517Z,22.70
2019-01-18T22:37:49.772Z,24.25
2019-01-18T22:40:49.956Z,26.20
2019-01-18T22:43:36.820Z,24.47
2019-01-18T22:46:38.209Z,24.50
2019-01-18T22:49:31.985Z,27.13
2019-01-18T22:52:26.701Z,23.30
2019-01-18T22:55:38.745Z,24.45
2019-01-18T22:58:25.447Z,24.75
2019-01-18T23:01:32.796Z,22.50
2019-01-18T23:04:33.097Z,23.47
2019-01-18T23:07:44.058Z,23.42
2019-01-18T23:11:06.118Z,23.20
2019-01-18T23:14:24.971Z,23.12
2019-01-18T23:17:08.951Z,21.15
2019-01-18T23:20:02.366Z,21.65
2019-01-18T23:22:50.723Z,24.52
2019-01-18T23:26:10.135Z,22.70
2019-01-18T23:29:18.145Z,23.62
2019-01-18T23:32:19.279Z,22.95
2019-01-18T23:35:11.051Z,23.25
2019-01-18T23:38:12.299Z,24.20
2019-01-18T23:41:13.115Z,21.07
2019-01-18T23:43:58.767Z,23.87
2019-01-18T23:46:54.675Z,24.82
2019-01-18T23:50:10.642Z,22.55
2019-01-18T23:53:12.707Z,21.15
2019-01-18T23:56:03.825Z,20.70
2019-01-18T23:58:58.581Z,21.95
